Aviation Digital Data Service (ADDS)

Output produced by METARs form (1203 UTC 24 February 2018)
found at http://www.aviationweather.gov/adds/metars/
 
GVAC 241200Z 25008KT 9999 SCT014 25/15 Q1013 NOSIG
TAF GVAC 241100Z 2412/2518 27010KT 9999 FEW014 
     TEMPO 2500/2508 VRB05KT
       
GVBA 241200Z 27009KT 9999 FEW014 23/17 Q1013 NOSIG
TAF GVBA 241100Z 2412/2518 25010KT 9999 FEW015 
     TEMPO 2500/2508 VRB04KT
       
GVSV 241200Z 25010KT 9999 SCT022 24/16 Q1013 NOSIG
TAF GVSV 241100Z 2412/2518 29010KT 9999 FEW018 
     TEMPO 2500/2508 VRB04KT